Time;durP1;ratioP1;P1;durP2;ratioP2;P2;SDS_P1;SDS_P2;PMS_P1;PMS_P2;Temp;Humidity;BMP_temperature;BMP_pressure;BME280_temperature;BME280_humidity;BME280_pressure;Samples;Min_cycle;Max_cycle;Signal;HPM_P1;HPM_P2
2022/08/25 00:01:53;;;;;;;5.40;3.30;;;30.70;99.90;;;;;;5053775;28;20045;-50
2022/08/25 00:04:19;;;;;;;4.80;3.50;;;30.70;99.90;;;;;;5053813;28;20427;-50
2022/08/25 00:06:45;;;;;;;3.45;2.97;;;30.70;99.90;;;;;;5054243;28;20064;-50
2022/08/25 00:09:14;;;;;;;4.65;3.30;;;30.70;99.90;;;;;;5035765;28;20056;-49
2022/08/25 00:11:41;;;;;;;5.40;3.42;;;30.70;99.90;;;;;;5053555;28;20107;-49
2022/08/25 00:14:13;;;;;;;4.80;3.70;;;30.70;99.90;;;;;;5053503;28;20017;-49
2022/08/25 00:16:39;;;;;;;6.38;3.17;;;30.60;99.90;;;;;;5053435;28;20094;-49
2022/08/25 00:19:09;;;;;;;4.15;3.35;;;30.60;99.90;;;;;;5053373;28;20170;-49
2022/08/25 00:21:35;;;;;;;6.80;3.45;;;30.60;99.90;;;;;;5053269;28;20025;-50
2022/08/25 00:24:02;;;;;;;7.65;3.65;;;30.60;99.90;;;;;;5035512;28;20027;-50
2022/08/25 00:26:28;;;;;;;4.88;3.35;;;30.60;99.90;;;;;;5053395;28;20040;-49
2022/08/25 00:28:54;;;;;;;4.32;3.53;;;30.60;99.90;;;;;;5035599;28;20021;-50
2022/08/25 00:31:22;;;;;;;4.50;3.33;;;30.60;99.90;;;;;;5035588;28;20500;-49
2022/08/25 00:33:49;;;;;;;5.00;3.75;;;30.60;99.90;;;;;;5052149;28;20056;-50
2022/08/25 00:36:17;;;;;;;5.55;3.42;;;30.60;99.90;;;;;;5053795;28;20041;-48
2022/08/25 00:38:45;;;;;;;5.45;3.65;;;30.60;99.90;;;;;;5053116;28;20546;-49
2022/08/25 00:41:16;;;;;;;6.28;3.78;;;30.60;99.90;;;;;;5052989;28;20053;-49
2022/08/25 00:43:44;;;;;;;5.53;3.97;;;30.60;99.90;;;;;;5053248;28;20362;-50
2022/08/25 00:46:17;;;;;;;4.72;3.65;;;30.60;99.90;;;;;;5053151;28;20056;-49
2022/08/25 00:48:46;;;;;;;4.55;3.70;;;30.60;99.90;;;;;;5052870;28;20469;-49
2022/08/25 00:51:15;;;;;;;4.85;3.78;;;30.50;99.90;;;;;;5052973;28;20027;-49
2022/08/25 00:53:42;;;;;;;7.88;3.65;;;30.50;99.90;;;;;;5052881;28;20098;-49
2022/08/25 00:56:09;;;;;;;5.10;3.70;;;30.50;99.90;;;;;;5052839;28;20036;-49
2022/08/25 00:58:36;;;;;;;5.78;4.25;;;30.50;99.90;;;;;;5052906;28;20381;-49
2022/08/25 01:01:02;;;;;;;5.10;4.13;;;30.50;99.90;;;;;;5053209;28;20485;-49
2022/08/25 01:03:32;;;;;;;5.67;3.73;;;30.50;99.90;;;;;;5052816;28;20132;-49
2022/08/25 01:06:00;;;;;;;4.28;3.38;;;30.50;99.90;;;;;;5052785;28;20258;-49
2022/08/25 01:08:28;;;;;;;5.75;4.35;;;30.50;99.90;;;;;;5052646;28;20401;-49
2022/08/25 01:10:57;;;;;;;5.72;3.65;;;30.50;99.90;;;;;;5052916;28;20025;-49
2022/08/25 01:13:32;;;;;;;7.63;4.53;;;30.50;99.90;;;;;;5052550;28;20057;-50
2022/08/25 01:15:58;;;;;;;4.72;3.72;;;30.50;99.90;;;;;;5052476;28;20127;-50
2022/08/25 01:18:26;;;;;;;4.65;3.78;;;30.50;99.90;;;;;;5052635;28;20082;-50
2022/08/25 01:20:53;;;;;;;5.60;3.90;;;30.50;99.90;;;;;;5052589;28;20528;-48
2022/08/25 01:23:21;;;;;;;5.22;3.97;;;30.40;99.90;;;;;;5052640;28;20025;-49
2022/08/25 01:26:06;;;;;;;5.57;3.83;;;30.40;99.90;;;;;;5034527;28;20029;-49
2022/08/25 01:28:32;;;;;;;7.75;4.18;;;30.40;99.90;;;;;;5052231;28;20021;-48
2022/08/25 01:30:57;;;;;;;5.20;3.88;;;30.40;99.90;;;;;;5052107;28;20071;-49
2022/08/25 01:33:23;;;;;;;3.75;3.25;;;30.40;99.90;;;;;;5052240;28;20029;-49
2022/08/25 01:35:49;;;;;;;4.82;3.70;;;30.30;99.90;;;;;;5052310;28;20083;-49
2022/08/25 01:38:17;;;;;;;6.35;4.07;;;30.30;99.90;;;;;;5052071;28;20511;-49
2022/08/25 01:40:43;;;;;;;5.53;3.65;;;30.30;99.90;;;;;;5051930;28;20447;-49
2022/08/25 01:43:20;;;;;;;4.03;3.50;;;30.40;99.90;;;;;;5051898;28;20028;-49
2022/08/25 01:45:46;;;;;;;;;;;30.30;99.90;;;;;;5052023;28;20076;-49
2022/08/25 01:48:14;;;;;;;6.63;4.13;;;30.30;99.90;;;;;;5052031;28;19904;-49
2022/08/25 01:50:41;;;;;;;5.97;3.80;;;30.30;99.90;;;;;;5051824;28;20082;-49
2022/08/25 01:53:17;;;;;;;13.68;3.97;;;30.30;99.90;;;;;;5033788;28;20021;-49
2022/08/25 01:55:52;;;;;;;6.38;3.70;;;30.30;99.90;;;;;;5051668;28;20556;-49
2022/08/25 01:58:30;;;;;;;5.82;3.83;;;30.30;99.90;;;;;;5051684;28;20028;-49
2022/08/25 02:01:00;;;;;;;6.28;3.90;;;30.30;99.90;;;;;;5064469;22;20080;-51
2022/08/25 02:03:27;;;;;;;5.82;3.67;;;30.30;99.90;;;;;;5051668;28;20068;-51
2022/08/25 02:05:53;;;;;;;6.90;3.97;;;30.20;99.90;;;;;;5051853;28;20033;-51
2022/08/25 02:08:21;;;;;;;5.13;3.40;;;30.20;99.90;;;;;;5051716;28;20090;-51
2022/08/25 02:10:48;;;;;;;4.57;3.72;;;30.20;99.90;;;;;;5051683;28;20060;-51
2022/08/25 02:13:14;;;;;;;5.70;4.05;;;30.20;99.90;;;;;;5051568;28;20138;-51
2022/08/25 02:15:46;;;;;;;5.20;3.65;;;30.20;99.90;;;;;;5051375;28;20044;-51
2022/08/25 02:18:13;;;;;;;6.45;3.97;;;30.20;99.90;;;;;;5051464;28;20031;-50
2022/08/25 02:20:38;;;;;;;5.75;3.75;;;30.20;99.90;;;;;;5051369;28;20519;-52
2022/08/25 02:23:04;;;;;;;7.18;3.90;;;30.20;99.90;;;;;;5051309;28;20061;-49
2022/08/25 02:25:31;;;;;;;4.90;3.33;;;30.20;99.90;;;;;;5051398;28;20021;-51
2022/08/25 02:27:57;;;;;;;5.57;3.72;;;30.10;99.90;;;;;;5051242;28;20024;-51
2022/08/25 02:30:23;;;;;;;5.45;3.50;;;30.20;99.90;;;;;;5051466;28;20048;-51
2022/08/25 02:32:49;;;;;;;6.63;3.60;;;30.20;99.90;;;;;;5051317;28;20032;-51
2022/08/25 02:35:16;;;;;;;5.50;3.97;;;30.10;99.90;;;;;;5051231;28;20025;-50
2022/08/25 02:37:41;;;;;;;5.90;3.78;;;30.10;99.90;;;;;;5051178;28;20385;-51
2022/08/25 02:40:08;;;;;;;4.13;3.67;;;30.10;99.90;;;;;;5051169;28;20028;-50
2022/08/25 02:42:34;;;;;;;4.43;3.43;;;30.10;99.90;;;;;;5051038;28;20032;-50
2022/08/25 02:44:59;;;;;;;5.65;3.72;;;30.10;99.90;;;;;;5051029;28;20025;-50
2022/08/25 02:47:25;;;;;;;4.82;3.30;;;30.10;99.90;;;;;;5051167;28;20536;-51
2022/08/25 02:49:51;;;;;;;3.78;3.25;;;30.00;99.90;;;;;;5033127;28;20039;-50
2022/08/25 02:52:17;;;;;;;4.70;3.28;;;30.10;99.90;;;;;;5050943;28;20067;-51
2022/08/25 02:54:43;;;;;;;4.70;3.10;;;30.10;99.90;;;;;;5050970;28;20091;-51
2022/08/25 02:57:10;;;;;;;4.07;3.15;;;30.00;99.90;;;;;;5052909;28;20416;-51
2022/08/25 02:59:36;;;;;;;;;;;30.00;99.90;;;;;;5069294;22;20057;-48
2022/08/25 03:02:02;;;;;;;5.35;3.10;;;30.00;99.90;;;;;;5075024;28;20003;-48
2022/08/25 03:04:29;;;;;;;4.47;2.83;;;30.00;99.90;;;;;;5075031;28;20029;-48
2022/08/25 03:06:55;;;;;;;5.82;3.97;;;30.00;99.90;;;;;;5075100;28;20021;-48
2022/08/25 03:09:21;;;;;;;4.70;2.92;;;30.00;99.90;;;;;;5075059;28;20126;-48
2022/08/25 03:11:47;;;;;;;5.57;3.33;;;30.00;99.90;;;;;;5074846;28;20541;-48
2022/08/25 03:14:14;;;;;;;3.72;3.20;;;30.00;99.90;;;;;;5056923;28;20036;-48
2022/08/25 03:16:41;;;;;;;4.28;3.08;;;30.00;99.90;;;;;;5074645;28;20029;-48
2022/08/25 03:19:07;;;;;;;4.88;3.38;;;30.00;99.90;;;;;;5074625;28;20469;-48
2022/08/25 03:21:33;;;;;;;6.15;3.50;;;30.00;99.90;;;;;;5074663;28;20036;-48
2022/08/25 03:23:59;;;;;;;4.18;3.30;;;30.00;99.90;;;;;;5056875;28;20027;-48
2022/08/25 03:29:09;;;;;;;5.57;2.95;;;29.90;99.90;;;;;;5074697;28;20166;-48
2022/08/25 03:31:36;;;;;;;3.88;3.00;;;29.90;99.90;;;;;;5074570;28;20112;-49
2022/08/25 03:34:03;;;;;;;5.68;3.28;;;29.90;99.90;;;;;;5074526;28;20494;-49
2022/08/25 03:36:29;;;;;;;4.20;2.90;;;29.90;99.90;;;;;;5074492;28;20041;-48
2022/08/25 03:38:55;;;;;;;5.05;2.67;;;29.90;99.90;;;;;;5056471;28;20154;-48
2022/08/25 03:41:31;;;;;;;3.47;3.03;;;29.90;99.90;;;;;;5074210;28;20050;-49
2022/08/25 03:43:58;;;;;;;5.60;2.97;;;29.90;99.90;;;;;;5074275;28;20024;-48
2022/08/25 03:46:27;;;;;;;5.03;2.92;;;29.90;99.90;;;;;;5074117;28;20029;-48
2022/08/25 03:48:54;;;;;;;4.45;3.13;;;29.90;99.90;;;;;;5074077;28;20028;-48
2022/08/25 03:51:20;;;;;;;4.73;3.10;;;29.90;99.90;;;;;;5073953;28;20037;-49
2022/08/25 03:53:45;;;;;;;4.93;2.78;;;29.90;99.90;;;;;;5055979;28;20326;-48
2022/08/25 03:56:12;;;;;;;3.95;2.88;;;29.80;99.90;;;;;;5073794;28;20050;-48
2022/08/25 03:58:37;;;;;;;3.30;2.60;;;29.80;99.90;;;;;;5073705;28;20024;-53
2022/08/25 04:01:03;;;;;;;5.13;3.15;;;29.80;99.90;;;;;;5087170;22;20144;-51
2022/08/25 04:03:29;;;;;;;3.78;2.80;;;29.80;99.90;;;;;;5074000;28;20056;-51
2022/08/25 04:05:55;;;;;;;4.50;2.63;;;29.80;99.90;;;;;;5073838;28;20032;-51
2022/08/25 04:08:21;;;;;;;3.40;2.75;;;29.80;99.90;;;;;;5073377;28;20075;-51
2022/08/25 04:10:47;;;;;;;4.95;2.90;;;29.80;99.90;;;;;;5055706;28;20058;-52
2022/08/25 04:13:13;;;;;;;3.55;3.00;;;29.80;99.90;;;;;;5073689;28;20476;-51
2022/08/25 04:15:42;;;;;;;3.50;2.40;;;29.80;99.90;;;;;;5073569;28;20043;-51
2022/08/25 04:18:10;;;;;;;5.00;2.60;;;29.80;99.90;;;;;;5073629;28;20518;-52
2022/08/25 04:20:36;;;;;;;2.67;2.45;;;29.80;99.90;;;;;;5073511;28;20024;-52
2022/08/25 04:23:02;;;;;;;3.95;2.88;;;29.80;99.90;;;;;;5073663;28;20070;-51
2022/08/25 04:25:28;;;;;;;3.47;3.08;;;29.80;99.90;;;;;;5073505;28;20111;-51
2022/08/25 04:27:54;;;;;;;3.85;3.28;;;29.80;99.90;;;;;;5073279;28;20025;-51
2022/08/25 04:30:20;;;;;;;4.35;3.05;;;29.80;99.90;;;;;;5073392;28;20529;-51
2022/08/25 04:32:47;;;;;;;4.65;2.97;;;29.80;99.90;;;;;;5073277;28;20013;-51
2022/08/25 04:35:13;;;;;;;3.45;2.88;;;29.80;99.90;;;;;;5073009;28;20511;-51
2022/08/25 04:37:40;;;;;;;2.90;2.30;;;29.70;99.90;;;;;;5073224;28;20033;-51
2022/08/25 04:40:06;;;;;;;3.38;2.80;;;29.70;99.90;;;;;;5073195;28;20051;-52
2022/08/25 04:42:32;;;;;;;4.05;2.72;;;29.70;99.90;;;;;;5073184;28;20103;-52
2022/08/25 04:45:00;;;;;;;7.50;3.03;;;29.70;99.90;;;;;;5073114;28;20025;-51
2022/08/25 04:47:27;;;;;;;4.72;3.00;;;29.70;99.90;;;;;;5073049;28;20051;-51
2022/08/25 04:49:53;;;;;;;5.90;3.53;;;29.80;99.90;;;;;;5073062;28;20024;-51
2022/08/25 04:52:19;;;;;;;4.60;3.10;;;29.70;99.90;;;;;;5072969;28;20035;-51
2022/08/25 04:54:45;;;;;;;5.07;2.88;;;29.70;99.90;;;;;;5072783;28;20021;-51
2022/08/25 04:57:12;;;;;;;4.68;3.30;;;29.70;99.90;;;;;;5072648;28;20021;-51
2022/08/25 04:59:38;;;;;;;3.70;2.75;;;29.70;99.90;;;;;;5072598;28;20119;-51
2022/08/25 05:02:05;;;;;;;4.25;2.88;;;29.70;99.90;;;;;;5072950;28;20032;-52
2022/08/25 05:04:32;;;;;;;6.00;3.60;;;29.70;99.90;;;;;;5072881;28;20393;-51
2022/08/25 05:06:58;;;;;;;6.85;3.15;;;29.70;99.90;;;;;;5072635;28;20255;-51
2022/08/25 05:09:25;;;;;;;3.47;2.83;;;29.70;99.90;;;;;;5072517;28;20028;-51
2022/08/25 05:11:51;;;;;;;5.47;3.22;;;29.70;99.90;;;;;;5072472;28;20048;-51
2022/08/25 05:14:20;;;;;;;4.60;2.83;;;29.70;99.90;;;;;;5072561;28;20103;-51
2022/08/25 05:16:47;;;;;;;4.93;2.90;;;29.70;99.90;;;;;;5072452;28;20306;-51
2022/08/25 05:19:13;;;;;;;5.82;3.83;;;29.70;99.90;;;;;;5071664;28;20020;-51
2022/08/25 05:21:40;;;;;;;5.55;3.35;;;29.70;99.90;;;;;;5072350;28;20025;-51
2022/08/25 05:24:06;;;;;;;5.07;3.00;;;29.70;99.90;;;;;;5072483;28;20402;-51
2022/08/25 05:26:35;;;;;;;5.43;3.70;;;29.70;99.90;;;;;;5072445;28;20021;-51
2022/08/25 05:29:03;;;;;;;5.28;3.65;;;29.70;99.90;;;;;;5072048;28;20021;-51
2022/08/25 05:31:30;;;;;;;6.10;3.60;;;29.60;99.90;;;;;;5072139;28;20357;-51
2022/08/25 05:33:56;;;;;;;4.50;3.80;;;29.60;99.90;;;;;;5072098;28;20033;-51
2022/08/25 05:36:23;;;;;;;7.65;3.90;;;29.60;99.90;;;;;;5071974;28;20040;-51
2022/08/25 05:38:49;;;;;;;5.30;3.83;;;29.60;99.90;;;;;;5072015;28;20016;-51
2022/08/25 05:41:25;;;;;;;6.55;3.88;;;29.60;99.90;;;;;;5053872;28;20036;-51
2022/08/25 05:43:51;;;;;;;5.68;4.47;;;29.60;99.90;;;;;;5071656;28;20013;-51
2022/08/25 05:46:18;;;;;;;6.97;3.88;;;29.60;99.90;;;;;;5071823;28;20314;-51
2022/08/25 05:48:44;;;;;;;5.40;3.58;;;29.60;99.90;;;;;;5071882;28;20396;-52
2022/08/25 05:51:11;;;;;;;5.05;3.60;;;29.60;99.90;;;;;;5071732;28;20099;-51
2022/08/25 05:53:42;;;;;;;4.97;3.45;;;29.60;99.90;;;;;;5071866;28;20027;-51
2022/08/25 05:56:09;;;;;;;4.88;3.60;;;29.50;99.90;;;;;;5071747;28;20082;-51
2022/08/25 05:58:36;;;;;;;4.30;3.72;;;29.50;99.90;;;;;;5071775;28;20101;-51
2022/08/25 06:03:47;;;;;;;5.22;3.35;;;29.50;99.90;;;;;;5051490;28;20036;-51
2022/08/25 06:06:14;;;;;;;5.30;3.90;;;29.50;99.90;;;;;;5051519;28;20020;-51
2022/08/25 06:08:41;;;;;;;;;;;29.50;99.90;;;;;;5050878;28;20117;-51
2022/08/25 06:11:06;;;;;;;4.60;3.50;;;29.50;99.90;;;;;;5051611;28;19956;-51
2022/08/25 06:13:33;;;;;;;5.30;3.80;;;29.60;99.90;;;;;;5051157;28;20442;-51
2022/08/25 06:15:59;;;;;;;4.60;3.60;;;29.50;99.90;;;;;;5051084;28;20037;-52
2022/08/25 06:18:25;;;;;;;4.55;3.40;;;29.50;99.90;;;;;;5051248;28;20118;-51
2022/08/25 06:20:51;;;;;;;4.75;3.65;;;29.50;99.90;;;;;;5051223;28;20496;-51
2022/08/25 06:23:19;;;;;;;7.97;4.00;;;29.50;99.90;;;;;;5051193;28;20055;-51
2022/08/25 06:25:50;;;;;;;4.30;3.60;;;29.50;99.90;;;;;;5049893;28;20033;-51
2022/08/25 06:28:16;;;;;;;6.70;4.85;;;29.50;99.90;;;;;;5051237;28;20243;-52
2022/08/25 06:30:41;;;;;;;5.05;3.83;;;29.50;99.90;;;;;;5050754;28;20336;-51
2022/08/25 06:33:07;;;;;;;4.93;4.10;;;29.60;99.90;;;;;;5051109;28;20029;-51
2022/08/25 06:35:33;;;;;;;4.53;3.90;;;29.60;99.90;;;;;;5050853;28;20040;-51
2022/08/25 06:37:59;;;;;;;4.55;3.95;;;29.50;99.90;;;;;;5050919;28;20473;-52
2022/08/25 06:40:24;;;;;;;5.53;4.22;;;29.50;99.90;;;;;;5050890;28;20094;-51
2022/08/25 06:42:50;;;;;;;5.90;4.15;;;29.50;99.90;;;;;;5050829;28;20422;-51
2022/08/25 06:45:17;;;;;;;6.70;3.95;;;29.60;99.90;;;;;;5050728;28;20075;-51
2022/08/25 06:47:43;;;;;;;5.10;3.85;;;29.60;99.90;;;;;;5050766;28;20053;-51
2022/08/25 06:50:09;;;;;;;5.38;4.05;;;29.60;99.90;;;;;;5050867;28;20064;-51
2022/08/25 06:52:35;;;;;;;7.55;4.47;;;29.50;99.90;;;;;;5050736;28;20062;-52
2022/08/25 06:55:02;;;;;;;6.38;4.07;;;29.60;99.90;;;;;;5049358;28;20028;-51
2022/08/25 06:57:28;;;;;;;5.88;4.05;;;29.60;99.90;;;;;;5049450;28;20021;-51
2022/08/25 06:59:54;;;;;;;4.93;3.70;;;29.60;99.90;;;;;;5054467;28;20048;-51
2022/08/25 07:02:20;;;;;;;6.32;3.78;;;29.60;99.90;;;;;;5070657;28;20069;-51
2022/08/25 07:04:45;;;;;;;4.30;3.78;;;29.60;99.90;;;;;;5070568;28;20032;-52
2022/08/25 07:07:11;;;;;;;4.68;3.47;;;29.60;99.90;;;;;;5070813;28;20475;-52
2022/08/25 07:09:37;;;;;;;5.82;4.03;;;29.70;99.90;;;;;;5070754;28;20098;-52
2022/08/25 07:12:04;;;;;;;4.78;3.83;;;29.70;99.90;;;;;;5070612;28;20082;-51
2022/08/25 07:14:30;;;;;;;5.05;3.83;;;29.70;99.90;;;;;;5052568;28;20052;-50
2022/08/25 07:16:56;;;;;;;6.13;4.28;;;29.70;99.90;;;;;;5070744;28;20550;-52
2022/08/25 07:19:22;;;;;;;5.37;4.00;;;29.70;99.90;;;;;;5070568;28;20033;-51
2022/08/25 07:21:51;;;;;;;5.70;3.70;;;29.70;99.90;;;;;;5070337;28;20074;-51
2022/08/25 07:24:17;;;;;;;5.28;4.18;;;29.70;99.90;;;;;;5070420;28;20028;-51
2022/08/25 07:26:45;;;;;;;5.95;3.85;;;29.70;99.90;;;;;;5070608;28;20028;-52
2022/08/25 07:29:18;;;;;;;4.80;3.78;;;29.70;99.90;;;;;;5070737;28;20078;-51
2022/08/25 07:31:45;;;;;;;4.72;3.95;;;29.80;99.90;;;;;;5070625;28;20028;-51
2022/08/25 07:36:56;;;;;;;4.53;3.72;;;29.70;99.90;;;;;;5070538;28;20106;-51
2022/08/25 07:39:23;;;;;;;4.22;3.83;;;29.80;99.90;;;;;;5070354;28;20024;-50
2022/08/25 07:41:49;;;;;;;4.90;4.00;;;29.80;99.90;;;;;;5052341;28;20048;-50
2022/08/25 07:44:15;;;;;;;5.20;3.97;;;29.80;99.90;;;;;;5073948;28;20028;-51
2022/08/25 07:46:41;;;;;;;5.00;3.65;;;29.80;99.90;;;;;;5055883;28;20021;-51
2022/08/25 07:49:07;;;;;;;5.50;3.60;;;29.80;99.90;;;;;;5073756;28;20036;-51
2022/08/25 07:51:33;;;;;;;5.05;3.60;;;29.80;99.90;;;;;;5056302;28;20017;-51
2022/08/25 07:54:00;;;;;;;4.77;3.83;;;29.80;99.90;;;;;;5073951;28;20115;-55
2022/08/25 07:56:26;;;;;;;4.93;4.10;;;29.80;99.90;;;;;;5073580;28;20761;-52
2022/08/25 07:58:51;;;;;;;3.97;3.58;;;29.90;99.90;;;;;;5073954;28;20031;-51
2022/08/25 08:01:21;;;;;;;6.10;4.03;;;29.90;99.90;;;;;;5073810;28;20040;-50
2022/08/25 08:03:50;;;;;;;4.65;3.92;;;29.90;99.90;;;;;;5073894;28;20472;-51
2022/08/25 08:06:19;;;;;;;5.53;4.15;;;29.90;99.90;;;;;;5073832;28;20614;-51
2022/08/25 08:08:48;;;;;;;6.72;3.58;;;29.90;99.90;;;;;;5073708;28;20555;-51
2022/08/25 08:11:20;;;;;;;6.43;3.33;;;29.90;99.90;;;;;;5073707;28;20039;-52
2022/08/25 08:13:47;;;;;;;4.32;2.95;;;29.90;99.90;;;;;;5073670;28;20029;-51
2022/08/25 08:16:14;;;;;;;7.25;4.10;;;29.90;99.90;;;;;;5073470;28;20033;-51
2022/08/25 08:18:42;;;;;;;4.32;3.70;;;29.90;99.90;;;;;;5073364;28;20024;-51
2022/08/25 08:21:12;;;;;;;;;;;29.90;99.90;;;;;;5073723;28;20028;-51
2022/08/25 08:23:38;;;;;;;5.68;3.13;;;29.90;99.90;;;;;;5055189;28;19947;-50
2022/08/25 08:26:04;;;;;;;5.43;3.30;;;30.00;99.90;;;;;;5073211;28;20390;-50
2022/08/25 08:28:30;;;;;;;5.68;4.07;;;29.90;99.90;;;;;;5073036;28;20373;-50
2022/08/25 08:30:56;;;;;;;4.65;3.55;;;29.90;99.90;;;;;;5072963;28;20082;-52
2022/08/25 08:33:23;;;;;;;4.43;3.90;;;30.00;99.90;;;;;;5073170;28;20089;-51
2022/08/25 08:35:59;;;;;;;4.72;3.67;;;30.00;99.90;;;;;;5072983;28;20115;-52
2022/08/25 08:38:25;;;;;;;4.03;3.63;;;29.90;99.90;;;;;;5072970;28;20021;-51
2022/08/25 08:44:35;;;;;;;5.57;3.67;;;30.00;99.90;;;;;;5073094;28;20075;-51
2022/08/25 08:47:35;;;;;;;5.38;3.63;;;30.00;99.90;;;;;;5072687;28;20065;-52
2022/08/25 08:50:36;;;;;;;4.90;3.47;;;30.00;99.90;;;;;;5072628;28;20050;-51
2022/08/25 08:53:08;;;;;;;5.05;4.10;;;30.00;99.90;;;;;;5072767;28;20385;-51
2022/08/25 08:55:43;;;;;;;5.47;3.72;;;30.00;99.90;;;;;;5053585;28;20032;-51
2022/08/25 08:58:22;;;;;;;5.50;3.25;;;30.00;99.90;;;;;;5072706;28;20116;-52
2022/08/25 09:00:53;;;;;;;5.07;3.67;;;30.00;99.90;;;;;;5072510;28;20079;-51
2022/08/25 09:03:40;;;;;;;4.47;3.55;;;30.00;99.90;;;;;;5072596;28;20028;-51
2022/08/25 09:06:30;;;;;;;4.40;3.60;;;30.00;99.90;;;;;;5072302;28;20031;-51
2022/08/25 09:09:00;;;;;;;4.15;3.25;;;30.00;99.90;;;;;;5072230;28;20020;-51
2022/08/25 09:11:29;;;;;;;5.13;3.38;;;30.00;99.90;;;;;;5072317;28;20504;-51
2022/08/25 09:14:16;;;;;;;5.05;3.80;;;30.00;99.90;;;;;;5072170;28;20115;-51
2022/08/25 09:16:54;;;;;;;5.03;3.40;;;30.00;99.90;;;;;;5072049;28;20029;-51
2022/08/25 09:19:44;;;;;;;5.72;3.72;;;30.00;99.90;;;;;;5108713;27;20310;-51
2022/08/25 09:22:22;;;;;;;5.50;3.60;;;30.00;99.90;;;;;;5107340;28;20127;-51
2022/08/25 09:25:12;;;;;;;6.53;4.07;;;30.00;99.90;;;;;;5108768;28;20405;-53
2022/08/25 09:28:03;;;;;;;4.40;3.42;;;30.00;99.90;;;;;;5108597;28;20103;-52
2022/08/25 09:30:50;;;;;;;4.18;3.67;;;30.10;99.90;;;;;;5108663;28;20020;-52
2022/08/25 09:33:21;;;;;;;3.90;3.25;;;30.10;99.90;;;;;;5108358;28;20559;-50
2022/08/25 09:35:49;;;;;;;4.82;3.60;;;30.10;99.90;;;;;;5108355;28;20036;-52
2022/08/25 09:38:15;;;;;;;4.97;3.35;;;30.10;99.90;;;;;;5108338;28;20058;-52
2022/08/25 09:40:46;;;;;;;5.50;3.45;;;30.10;99.90;;;;;;5108566;28;20460;-52
2022/08/25 09:43:33;;;;;;;6.13;3.58;;;30.10;99.90;;;;;;5106758;28;20032;-52
2022/08/25 09:46:09;;;;;;;;;;;30.10;99.90;;;;;;5107305;28;20440;-53
2022/08/25 09:48:46;;;;;;;5.43;2.83;;;30.10;99.90;;;;;;5108051;28;19945;-52
2022/08/25 09:51:19;;;;;;;5.35;3.35;;;30.20;99.90;;;;;;5108321;28;20019;-50
2022/08/25 09:54:02;;;;;;;5.65;3.65;;;30.20;99.90;;;;;;5108184;28;20193;-50
2022/08/25 09:56:32;;;;;;;5.78;3.58;;;30.20;99.90;;;;;;5107898;28;20020;-51
2022/08/25 09:59:26;;;;;;;4.70;3.85;;;30.20;99.90;;;;;;5107670;28;20036;-50
2022/08/25 10:01:57;;;;;;;6.60;3.88;;;30.20;99.90;;;;;;5108004;28;20028;-51
2022/08/25 10:04:30;;;;;;;4.65;3.75;;;30.20;99.90;;;;;;5106620;28;20038;-51
2022/08/25 10:06:57;;;;;;;4.18;3.63;;;30.20;99.90;;;;;;5107788;28;20153;-51
2022/08/25 10:09:33;;;;;;;5.05;3.63;;;30.20;99.90;;;;;;5107794;28;20080;-52
2022/08/25 10:12:01;;;;;;;5.15;3.67;;;30.20;99.90;;;;;;5107640;28;20027;-51
2022/08/25 10:14:37;;;;;;;4.45;3.60;;;30.20;99.90;;;;;;5107650;28;20012;-51
2022/08/25 10:17:30;;;;;;;3.53;3.13;;;30.20;99.90;;;;;;5107680;28;20024;-50
2022/08/25 10:20:08;;;;;;;5.00;3.85;;;30.30;99.90;;;;;;5107518;28;20533;-51
2022/08/25 10:22:36;;;;;;;4.65;3.42;;;30.30;99.90;;;;;;5107171;28;20028;-50
2022/08/25 10:25:08;;;;;;;;;;;30.30;99.90;;;;;;5107814;28;20073;-52
2022/08/25 10:27:47;;;;;;;5.90;3.92;;;30.30;99.90;;;;;;5107267;28;19904;-50
2022/08/25 10:30:25;;;;;;;3.75;3.35;;;30.30;99.90;;;;;;5097729;28;20047;-50
2022/08/25 10:33:17;;;;;;;4.22;3.67;;;30.30;99.90;;;;;;5093833;28;20024;-50
2022/08/25 10:36:20;;;;;;;4.15;3.10;;;30.30;99.90;;;;;;5064632;28;20040;-50
2022/08/25 10:38:59;;;;;;;4.72;3.13;;;30.40;99.90;;;;;;5093699;28;20386;-50
2022/08/25 10:41:59;;;;;;;5.15;3.80;;;30.40;99.90;;;;;;5093808;28;20031;-51
2022/08/25 10:47:41;;;;;;;5.10;3.50;;;30.40;99.90;;;;;;5093661;28;20391;-51
2022/08/25 10:50:41;;;;;;;5.18;3.45;;;30.40;99.90;;;;;;5093161;28;20382;-51
2022/08/25 10:53:16;;;;;;;4.30;3.80;;;30.40;99.90;;;;;;5093188;28;20020;-51
2022/08/25 10:55:54;;;;;;;5.35;3.80;;;30.50;99.90;;;;;;5093361;28;20031;-50
2022/08/25 10:58:47;;;;;;;3.45;3.15;;;30.40;99.90;;;;;;5093244;28;20031;-51
2022/08/25 11:01:34;;;;;;;4.53;3.78;;;30.50;99.90;;;;;;5093170;28;20028;-51
2022/08/25 11:04:12;;;;;;;5.07;3.92;;;30.50;99.90;;;;;;5093226;28;20016;-51
2022/08/25 11:06:48;;;;;;;5.07;3.92;;;30.60;99.90;;;;;;5093007;28;20024;-51
2022/08/25 11:09:20;;;;;;;5.15;3.90;;;30.60;99.90;;;;;;5093162;28;20360;-51
2022/08/25 11:12:05;;;;;;;7.13;3.65;;;30.60;99.90;;;;;;5093098;28;20024;-51
2022/08/25 11:14:46;;;;;;;6.30;4.10;;;30.60;99.90;;;;;;5092882;28;20495;-51
2022/08/25 11:17:41;;;;;;;4.65;4.10;;;30.60;99.90;;;;;;5093466;28;20116;-50
2022/08/25 11:20:15;;;;;;;5.10;4.28;;;30.60;99.90;;;;;;5112323;28;20036;-51
2022/08/25 11:22:47;;;;;;;5.03;3.63;;;30.60;99.90;;;;;;5113194;28;20074;-51
2022/08/25 11:25:39;;;;;;;4.10;3.60;;;30.60;99.90;;;;;;5094607;28;20051;-51
2022/08/25 11:28:15;;;;;;;3.90;3.50;;;30.70;99.90;;;;;;5112842;28;20016;-51
2022/08/25 11:30:41;;;;;;;4.90;3.72;;;30.70;99.90;;;;;;5112907;28;20031;-51
2022/08/25 11:33:11;;;;;;;3.60;3.30;;;30.70;99.90;;;;;;5112810;28;20047;-51
2022/08/25 11:35:45;;;;;;;4.25;3.85;;;30.70;99.90;;;;;;5112982;28;20095;-51
2022/08/25 11:38:32;;;;;;;5.05;4.10;;;30.70;99.90;;;;;;5112813;28;20031;-51
2022/08/25 11:41:26;;;;;;;5.38;3.78;;;30.70;99.90;;;;;;5112035;28;20057;-51
2022/08/25 11:43:57;;;;;;;5.65;3.90;;;30.70;99.90;;;;;;5112736;28;20102;-51
2022/08/25 11:46:44;;;;;;;4.75;3.70;;;30.70;99.90;;;;;;5112989;28;20027;-51
2022/08/25 11:49:28;;;;;;;4.22;3.75;;;30.70;99.90;;;;;;5112812;28;20059;-51
2022/08/25 11:51:53;;;;;;;4.57;4.00;;;30.70;99.90;;;;;;5112751;28;20124;-51
2022/08/25 11:54:35;;;;;;;5.65;4.03;;;30.80;99.90;;;;;;5112702;28;20216;-51
2022/08/25 11:57:05;;;;;;;4.40;3.88;;;30.80;99.90;;;;;;5112517;28;20027;-51
2022/08/25 11:59:52;;;;;;;5.00;4.00;;;30.80;99.90;;;;;;5112467;28;20028;-51
2022/08/25 12:02:39;;;;;;;5.43;3.65;;;30.90;99.90;;;;;;5112377;28;20031;-51
2022/08/25 12:05:31;;;;;;;3.88;3.55;;;30.80;99.90;;;;;;5112272;28;20074;-51
2022/08/25 12:10:52;;;;;;;5.32;4.00;;;30.90;99.90;;;;;;5112321;28;20027;-52
2022/08/25 12:13:38;;;;;;;5.43;4.35;;;30.90;99.90;;;;;;5112331;28;20015;-51
2022/08/25 12:16:05;;;;;;;4.18;3.83;;;30.90;99.90;;;;;;5112124;28;20015;-52
2022/08/25 12:18:31;;;;;;;6.95;4.30;;;30.90;99.90;;;;;;5111721;28;20105;-51
2022/08/25 12:20:57;;;;;;;4.38;3.90;;;31.00;99.90;;;;;;5093560;28;20035;-51
2022/08/25 12:24:02;;;;;;;5.40;4.22;;;31.00;99.90;;;;;;5111817;28;20020;-52
2022/08/25 12:26:46;;;;;;;6.90;4.50;;;31.00;99.90;;;;;;5111919;28;20421;-51
2022/08/25 12:29:22;;;;;;;5.50;4.00;;;31.00;99.90;;;;;;5111890;28;20034;-51
2022/08/25 12:32:15;;;;;;;5.85;5.00;;;31.00;99.90;;;;;;5111778;28;20115;-52
2022/08/25 12:34:48;;;;;;;5.78;4.75;;;31.00;99.90;;;;;;5111655;28;20023;-52
2022/08/25 12:37:20;;;;;;;4.93;4.43;;;31.00;99.90;;;;;;5111640;28;20486;-51
2022/08/25 12:39:49;;;;;;;5.13;4.60;;;31.00;99.90;;;;;;5093442;28;20038;-52
2022/08/25 12:42:28;;;;;;;4.20;3.83;;;31.10;99.90;;;;;;5111603;28;20026;-51
2022/08/25 12:45:20;;;;;;;5.40;4.53;;;31.10;99.90;;;;;;5111577;28;20028;-52
2022/08/25 12:47:47;;;;;;;5.15;4.43;;;31.10;99.90;;;;;;5072683;28;20249;-52
2022/08/25 12:50:31;;;;;;;5.70;4.55;;;31.10;99.90;;;;;;5111414;28;20023;-52
2022/08/25 12:53:23;;;;;;;5.03;4.50;;;31.10;99.90;;;;;;5111192;28;20080;-51
2022/08/25 12:55:55;;;;;;;7.10;5.07;;;31.10;99.90;;;;;;5111447;28;20027;-51
2022/08/25 12:58:27;;;;;;;6.68;4.68;;;31.10;99.90;;;;;;5111359;28;20127;-51
2022/08/25 13:01:09;;;;;;;5.95;4.38;;;31.10;99.90;;;;;;5111150;28;20035;-52
2022/08/25 13:03:59;;;;;;;4.47;4.03;;;31.10;99.90;;;;;;5093166;28;20028;-52
2022/08/25 13:06:35;;;;;;;6.43;4.65;;;31.10;99.90;;;;;;5111320;28;20451;-52
2022/08/25 13:09:30;;;;;;;5.68;4.50;;;31.20;99.90;;;;;;5111063;28;20092;-51
2022/08/25 13:12:16;;;;;;;5.18;4.68;;;31.20;99.90;;;;;;5111082;28;20024;-51
2022/08/25 13:14:45;;;;;;;5.82;4.70;;;31.20;99.90;;;;;;5111016;28;20034;-51
2022/08/25 13:17:23;;;;;;;5.78;4.68;;;31.20;99.90;;;;;;5110915;28;20088;-51
2022/08/25 13:19:49;;;;;;;6.20;4.43;;;31.20;99.90;;;;;;5092738;28;20036;-53
2022/08/25 13:22:16;;;;;;;5.32;4.68;;;31.20;99.90;;;;;;5111233;28;20389;-51
2022/08/25 13:24:45;;;;;;;5.78;4.85;;;31.20;99.90;;;;;;5111114;28;20052;-52
2022/08/25 13:27:23;;;;;;;5.07;4.20;;;31.20;99.90;;;;;;5111346;28;20366;-52